createdAt,value
2024-02-13T00:02:12.338Z,100998.22
2024-02-13T00:04:38.849Z,101004.94
2024-02-13T00:07:05.507Z,101005.41
2024-02-13T00:09:32.080Z,101003.84
2024-02-13T00:11:58.911Z,101002.31
2024-02-13T00:14:25.463Z,101015.13
2024-02-13T00:16:52.748Z,101006.34
2024-02-13T00:19:19.405Z,101006.34
2024-02-13T00:21:49.277Z,101011.22
2024-02-13T00:24:17.483Z,101016.06
2024-02-13T00:26:47.922Z,101010.44
2024-02-13T00:29:14.591Z,101017.63
2024-02-13T00:31:42.116Z,101026.88
2024-02-13T00:34:08.672Z,101033.75
2024-02-13T00:36:35.160Z,101033.75
2024-02-13T00:39:01.755Z,101044.25
2024-02-13T00:41:28.595Z,101039.88
2024-02-13T00:43:56.729Z,101041.09
2024-02-13T00:46:23.320Z,101045.19
2024-02-13T00:48:49.963Z,101046.25
2024-02-13T00:51:16.910Z,101047.53
2024-02-13T00:53:43.875Z,101047.53
2024-02-13T00:56:10.460Z,101055.50
2024-02-13T00:58:39.920Z,101058.00
2024-02-13T01:01:06.602Z,101062.88
2024-02-13T01:03:35.615Z,101056.44
2024-02-13T01:06:02.525Z,101057.25
2024-02-13T01:08:29.082Z,101057.25
2024-02-13T01:10:55.711Z,101062.88
2024-02-13T01:13:22.194Z,101065.69
2024-02-13T01:15:49.635Z,101054.41
2024-02-13T01:18:16.718Z,101074.16
2024-02-13T01:20:43.890Z,101066.91
2024-02-13T01:23:12.770Z,101074.91
2024-02-13T01:25:40.250Z,101079.00
2024-02-13T01:28:08.661Z,101082.59
2024-02-13T01:30:36.155Z,101076.97
2024-02-13T01:33:03.014Z,101079.44
2024-02-13T01:35:29.596Z,101085.09
2024-02-13T01:37:57.590Z,101085.88
2024-02-13T01:40:24.332Z,101097.16
2024-02-13T01:42:50.920Z,101095.91
2024-02-13T01:45:18.098Z,101100.28
2024-02-13T01:47:45.760Z,101101.53
2024-02-13T01:50:15.271Z,101094.81
2024-02-13T01:52:43.609Z,101096.81
2024-02-13T01:55:16.065Z,101098.41
2024-02-13T01:57:42.849Z,101103.72
2024-02-13T02:00:15.696Z,101097.63
2024-02-13T02:02:44.042Z,101100.09
2024-02-13T02:05:12.330Z,101094.00
2024-02-13T02:07:44.230Z,101098.41
2024-02-13T02:10:10.713Z,101104.03
2024-02-13T02:12:37.495Z,101107.31
2024-02-13T02:15:05.394Z,101102.47
2024-02-13T02:17:32.879Z,101100.91
2024-02-13T02:19:59.453Z,101107.78
2024-02-13T02:22:25.921Z,101097.28
2024-02-13T02:24:52.422Z,101099.34
2024-02-13T02:27:19.089Z,101104.03
2024-02-13T02:29:45.641Z,101110.16
2024-02-13T02:32:12.212Z,101106.19
2024-02-13T02:34:40.787Z,101101.38
2024-02-13T02:37:07.501Z,101109.03
2024-02-13T02:39:34.118Z,101110.63
2024-02-13T02:42:02.082Z,101122.66
2024-02-13T02:44:28.725Z,101116.72
2024-02-13T02:46:55.310Z,101123.09
2024-02-13T02:49:21.889Z,101127.50
2024-02-13T02:51:48.440Z,101126.25
2024-02-13T02:54:14.937Z,101134.72
2024-02-13T02:56:42.607Z,101136.28
2024-02-13T02:59:09.238Z,101136.28
2024-02-13T03:01:35.723Z,101136.59
2024-02-13T03:04:05.865Z,101143.50
2024-02-13T03:06:34.951Z,101131.44
2024-02-13T03:09:02.033Z,101141.91
2024-02-13T03:11:28.678Z,101137.53
2024-02-13T03:13:55.151Z,101128.28
2024-02-13T03:16:21.596Z,101131.09
2024-02-13T03:18:48.195Z,101138.00
2024-02-13T03:21:15.003Z,101141.59
2024-02-13T03:23:44.208Z,101137.19
2024-02-13T03:26:11.004Z,101134.06
2024-02-13T03:28:37.644Z,101129.22
2024-02-13T03:31:05.971Z,101135.97
2024-02-13T03:33:32.688Z,101141.59
2024-02-13T03:36:00.794Z,101137.19
2024-02-13T03:38:28.237Z,101131.56
2024-02-13T03:40:54.955Z,101137.19
2024-02-13T03:43:22.859Z,101131.25
2024-02-13T03:45:49.935Z,101141.28
2024-02-13T03:48:19.284Z,101138.78
2024-02-13T03:50:46.155Z,101144.56
2024-02-13T03:53:15.543Z,101145.81
2024-02-13T03:55:42.171Z,101142.53
2024-02-13T03:58:08.693Z,101146.56
2024-02-13T04:00:35.225Z,101155.81
2024-02-13T04:03:01.935Z,101144.56
2024-02-13T04:05:28.465Z,101147.84
2024-02-13T04:07:55.702Z,101143.75
2024-02-13T04:10:23.461Z,101146.28
2024-02-13T04:12:49.942Z,101147.03
2024-02-13T04:15:16.561Z,101141.41
2024-02-13T04:17:43.421Z,101149.09
2024-02-13T04:20:10.774Z,101138.59
2024-02-13T04:22:37.362Z,101145.47
2024-02-13T04:25:04.212Z,101151.56
2024-02-13T04:27:30.764Z,101160.03
2024-02-13T04:29:57.646Z,101151.56
2024-02-13T04:32:24.835Z,101147.19
2024-02-13T04:34:51.449Z,101147.66
2024-02-13T04:37:18.058Z,101157.66
2024-02-13T04:39:44.561Z,101154.56
2024-02-13T04:42:12.266Z,101150.16
2024-02-13T04:44:40.062Z,101150.94
2024-02-13T04:47:07.018Z,101152.19
2024-02-13T04:49:33.869Z,101151.41
2024-02-13T04:52:00.494Z,101151.88
2024-02-13T04:54:27.161Z,101156.09
2024-02-13T04:56:55.692Z,101164.22
2024-02-13T04:59:24.153Z,101157.84
2024-02-13T05:01:52.091Z,101152.19
2024-02-13T05:04:21.398Z,101169.09
2024-02-13T05:07:06.589Z,101166.75
2024-02-13T05:09:33.088Z,101175.97
2024-02-13T05:11:59.660Z,101168.75
2024-02-13T05:14:26.284Z,101163.59
2024-02-13T05:16:52.881Z,101171.59
2024-02-13T05:19:20.002Z,101175.66
2024-02-13T05:21:46.652Z,101175.66
2024-02-13T05:24:13.133Z,101176.91
2024-02-13T05:26:39.713Z,101181.75
2024-02-13T05:29:06.425Z,101184.56
2024-02-13T05:31:33.158Z,101179.72
2024-02-13T05:33:59.893Z,101170.03
2024-02-13T05:36:27.111Z,101173.16
2024-02-13T05:38:53.946Z,101167.66
2024-02-13T05:41:20.619Z,101173.31
2024-02-13T05:43:47.183Z,101182.84
2024-02-13T05:46:14.528Z,101177.63
2024-02-13T05:48:44.513Z,101176.84
2024-02-13T05:51:15.540Z,101179.66
2024-02-13T05:53:45.392Z,101181.66
2024-02-13T05:56:23.481Z,101180.09
2024-02-13T05:58:54.284Z,101180.91
2024-02-13T06:01:20.900Z,101180.91
2024-02-13T06:03:47.605Z,101181.38
2024-02-13T06:06:14.229Z,101180.09
2024-02-13T06:08:40.763Z,101187.75
2024-02-13T06:11:07.370Z,101183.38
2024-02-13T06:13:34.908Z,101189.03
2024-02-13T06:16:01.647Z,101192.16
2024-02-13T06:18:29.012Z,101182.13
2024-02-13T06:20:55.843Z,101184.94
2024-02-13T06:23:22.498Z,101203.09
2024-02-13T06:25:49.360Z,101196.22
2024-02-13T06:28:16.079Z,101198.25
2024-02-13T06:30:44.661Z,101203.91
2024-02-13T06:33:13.268Z,101208.72
2024-02-13T06:35:41.033Z,101208.72
2024-02-13T06:38:07.613Z,101212.34
2024-02-13T06:40:35.331Z,101214.81
2024-02-13T06:43:03.024Z,101223.28
2024-02-13T06:45:29.547Z,101215.63
2024-02-13T06:47:56.724Z,101221.25
2024-02-13T06:50:24.805Z,101213.56
2024-02-13T06:52:53.439Z,101216.84
2024-02-13T06:55:21.049Z,101216.06
2024-02-13T06:57:47.859Z,101215.63
2024-02-13T07:00:15.134Z,101225.28
2024-02-13T07:02:42.079Z,101224.53
2024-02-13T07:05:12.627Z,101229.38
2024-02-13T07:07:46.627Z,101242.69
2024-02-13T07:10:16.015Z,101251.13
2024-02-13T07:12:43.192Z,101246.25
2024-02-13T07:15:10.325Z,101251.13
2024-02-13T07:17:48.282Z,101250.34
2024-02-13T07:20:23.566Z,101249.53
2024-02-13T07:22:50.304Z,101257.22
2024-02-13T07:25:16.899Z,101252.81
2024-02-13T07:27:44.112Z,101262.06
2024-02-13T07:30:14.372Z,101257.69
2024-02-13T07:32:41.631Z,101261.72
2024-02-13T07:35:09.082Z,101258.13
2024-02-13T07:37:35.743Z,101266.59
2024-02-13T07:40:03.356Z,101267.81
2024-02-13T07:42:30.333Z,101266.25
2024-02-13T07:44:57.406Z,101270.78
2024-02-13T07:47:24.167Z,101270.97
2024-02-13T07:49:51.386Z,101283.09
2024-02-13T07:52:18.935Z,101280.28
2024-02-13T07:54:46.799Z,101281.00
2024-02-13T07:57:18.340Z,101285.53
2024-02-13T07:59:46.085Z,101294.66
2024-02-13T08:02:16.833Z,101292.06
2024-02-13T08:04:44.737Z,101298.38
2024-02-13T08:07:11.261Z,101291.31
2024-02-13T08:09:37.873Z,101283.41
2024-02-13T08:12:07.481Z,101288.00
2024-02-13T08:14:36.035Z,101293.53
2024-02-13T08:17:07.525Z,101296.22
2024-02-13T08:19:37.692Z,101291.41
2024-02-13T08:22:04.448Z,101286.13
2024-02-13T08:24:30.988Z,101280.81
2024-02-13T08:26:57.622Z,101284.75
2024-02-13T08:29:27.934Z,101291.94
2024-02-13T08:31:55.671Z,101285.06
2024-02-13T08:34:23.120Z,101286.19
2024-02-13T08:36:50.030Z,101290.59
2024-02-13T08:39:16.672Z,101290.59
2024-02-13T08:41:43.204Z,101300.13
2024-02-13T08:44:11.513Z,101302.50
2024-02-13T08:46:38.008Z,101305.31
2024-02-13T08:49:06.129Z,101297.19
2024-02-13T08:51:36.594Z,101312.84
2024-02-13T08:54:05.006Z,101314.88
2024-02-13T08:56:31.686Z,101322.06
2024-02-13T08:59:00.071Z,101319.25
2024-02-13T09:01:26.856Z,101318.03
2024-02-13T09:03:53.568Z,101314.75
2024-02-13T09:06:21.247Z,101321.16
2024-02-13T09:08:47.994Z,101312.41
2024-02-13T09:11:14.682Z,101312.41
2024-02-13T09:13:42.112Z,101311.59
2024-02-13T09:16:12.301Z,101322.41
2024-02-13T09:18:43.085Z,101315.22
2024-02-13T09:21:11.551Z,101315.97
2024-02-13T09:23:38.786Z,101320.38
2024-02-13T09:26:05.859Z,101313.97
2024-02-13T09:28:32.805Z,101323.97
2024-02-13T09:30:59.622Z,101333.19
2024-02-13T09:33:27.315Z,101332.09
2024-02-13T09:35:55.153Z,101336.81
2024-02-13T09:38:23.027Z,101328.81
2024-02-13T09:40:50.204Z,101336.00
2024-02-13T09:43:17.150Z,101331.50
2024-02-13T09:45:45.651Z,101338.84
2024-02-13T09:48:22.064Z,101333.50
2024-02-13T09:50:50.468Z,101338.38
2024-02-13T09:53:28.076Z,101337.13
2024-02-13T09:56:01.389Z,101336.69
2024-02-13T09:58:28.224Z,101337.47
2024-02-13T10:00:58.712Z,101341.06
2024-02-13T10:03:28.097Z,101335.41
2024-02-13T10:05:54.990Z,101338.59
2024-02-13T10:08:28.297Z,101344.56
2024-02-13T10:11:16.673Z,101348.59
2024-02-13T10:13:47.192Z,101355.47
2024-02-13T10:16:32.309Z,101360.66
2024-02-13T10:19:02.315Z,101374.72
2024-02-13T10:21:31.007Z,101367.84
2024-02-13T10:24:08.399Z,101363.47
2024-02-13T10:26:39.141Z,101376.63
2024-02-13T10:29:05.806Z,101363.31
2024-02-13T10:31:40.836Z,101368.19
2024-02-13T10:34:10.606Z,101369.75
2024-02-13T10:36:38.945Z,101367.72
2024-02-13T10:39:10.033Z,101370.53
2024-02-13T10:41:45.788Z,101365.69
2024-02-13T10:44:15.084Z,101365.69
2024-02-13T10:46:43.192Z,101365.22
2024-02-13T10:49:50.945Z,101369.63
2024-02-13T10:52:17.953Z,101378.84
2024-02-13T10:54:48.490Z,101372.44
2024-02-13T10:57:18.759Z,101371.19
2024-02-13T10:59:48.099Z,101372.09
2024-02-13T11:02:19.003Z,101368.38
2024-02-13T11:04:48.916Z,101367.13
2024-02-13T11:07:16.906Z,101370.75
2024-02-13T11:09:44.366Z,101361.50
2024-02-13T11:12:11.343Z,101363.88
2024-02-13T11:14:37.949Z,101356.97
2024-02-13T11:17:10.557Z,101360.59
2024-02-13T11:19:45.584Z,101351.34
2024-02-13T11:22:17.388Z,101349.34
2024-02-13T11:24:51.402Z,101352.94
2024-02-13T11:27:29.074Z,101350.91
2024-02-13T11:29:59.847Z,101350.91
2024-02-13T11:32:31.224Z,101350.91
2024-02-13T11:34:59.842Z,101346.84
2024-02-13T11:37:28.628Z,101350.91
2024-02-13T11:39:58.018Z,101344.03
2024-02-13T11:42:27.987Z,101346.06
2024-02-13T11:45:00.050Z,101341.22
2024-02-13T11:47:27.188Z,101342.78
2024-02-13T11:49:56.110Z,101345.59
2024-02-13T11:52:24.444Z,101347.16
2024-02-13T11:54:51.786Z,101345.16
2024-02-13T11:57:20.807Z,101354.06
2024-02-13T11:59:57.526Z,101361.25
2024-02-13T12:02:24.158Z,101362.03
2024-02-13T12:04:50.808Z,101360.03
2024-02-13T12:07:17.892Z,101350.78
2024-02-13T12:09:53.758Z,101349.97
2024-02-13T12:12:21.395Z,101352.81
2024-02-13T12:14:51.318Z,101361.59
2024-02-13T12:17:18.443Z,101350.31
2024-02-13T12:19:45.580Z,101337.50
2024-02-13T12:22:14.756Z,101341.09
2024-02-13T12:24:41.753Z,101347.50
2024-02-13T12:27:13.680Z,101353.94
2024-02-13T12:29:44.361Z,101344.69
2024-02-13T12:32:19.417Z,101351.88
2024-02-13T12:34:51.938Z,101352.69
2024-02-13T12:37:19.769Z,101349.88
2024-02-13T12:39:47.350Z,101343.44
2024-02-13T12:42:14.805Z,101349.06
2024-02-13T12:44:42.380Z,101339.88
2024-02-13T12:47:14.533Z,101345.81
2024-02-13T12:49:45.881Z,101344.09
2024-02-13T12:52:17.905Z,101342.06
2024-02-13T12:54:47.149Z,101341.63
2024-02-13T12:57:13.759Z,101354.44
2024-02-13T12:59:40.565Z,101346.81
2024-02-13T13:02:10.016Z,101339.16
2024-02-13T13:04:39.563Z,101339.16
2024-02-13T13:07:07.176Z,101334.28
2024-02-13T13:09:35.678Z,101325.38
2024-02-13T13:12:02.446Z,101339.00
2024-02-13T13:14:29.369Z,101334.94
2024-02-13T13:16:57.260Z,101330.91
2024-02-13T13:19:28.712Z,101327.63
2024-02-13T13:21:57.069Z,101316.34
2024-02-13T13:24:24.028Z,101317.47
2024-02-13T13:26:51.588Z,101321.03
2024-02-13T13:29:18.782Z,101320.28
2024-02-13T13:31:48.731Z,101322.19
2024-02-13T13:34:21.620Z,101331.41
2024-02-13T13:36:51.014Z,101320.94
2024-02-13T13:39:17.857Z,101314.84
2024-02-13T13:41:44.577Z,101315.28
2024-02-13T13:44:11.957Z,101310.78
2024-02-13T13:46:38.596Z,101315.22
2024-02-13T13:49:05.505Z,101311.13
2024-02-13T13:51:34.708Z,101307.88
2024-02-13T13:54:01.766Z,101303.00
2024-02-13T13:56:28.313Z,101311.00
2024-02-13T13:58:54.844Z,101319.78
2024-02-13T14:01:21.455Z,101330.59
2024-02-13T14:03:48.179Z,101319.63
2024-02-13T14:06:14.902Z,101328.41
2024-02-13T14:08:41.864Z,101322.78
2024-02-13T14:11:08.830Z,101329.22
2024-02-13T14:13:35.866Z,101325.94
2024-02-13T14:16:02.450Z,101321.88
2024-02-13T14:18:29.794Z,101327.84
2024-02-13T14:20:57.109Z,101330.16
2024-02-13T14:23:24.622Z,101322.06
2024-02-13T14:25:51.630Z,101320.03
2024-02-13T14:28:19.378Z,101316.75
2024-02-13T14:30:46.236Z,101323.16
2024-02-13T14:33:13.474Z,101320.34
2024-02-13T14:35:41.088Z,101326.31
2024-02-13T14:38:09.557Z,101328.34
2024-02-13T14:40:40.618Z,101331.94
2024-02-13T14:43:08.490Z,101327.88
2024-02-13T14:45:36.756Z,101327.09
2024-02-13T14:48:10.529Z,101325.84
2024-02-13T14:50:39.468Z,101312.41
2024-02-13T14:53:11.236Z,101321.19
2024-02-13T14:55:40.145Z,101324.66
2024-02-13T14:58:15.148Z,101318.22
2024-02-13T15:00:54.157Z,101320.13
2024-02-13T15:03:21.597Z,101319.03
2024-02-13T15:05:48.176Z,101307.75
2024-02-13T15:08:17.041Z,101302.41
2024-02-13T15:10:45.238Z,101296.00
2024-02-13T15:13:13.972Z,101301.19
2024-02-13T15:15:40.466Z,101307.59
2024-02-13T15:18:07.687Z,101312.00
2024-02-13T15:20:36.721Z,101306.81
2024-02-13T15:23:03.316Z,101302.75
2024-02-13T15:25:32.065Z,101311.22
2024-02-13T15:27:58.999Z,101307.28
2024-02-13T15:30:26.863Z,101312.78
2024-02-13T15:32:53.591Z,101306.38
2024-02-13T15:35:28.447Z,101307.94
2024-02-13T15:38:13.511Z,101311.22
2024-02-13T15:40:58.268Z,101312.00
2024-02-13T15:43:43.143Z,101305.09
2024-02-13T15:46:31.670Z,101293.84
2024-02-13T15:48:58.373Z,101303.84
2024-02-13T15:51:25.098Z,101297.44
2024-02-13T15:53:51.824Z,101313.91
2024-02-13T15:56:19.290Z,101306.66
2024-02-13T15:58:46.013Z,101308.56
2024-02-13T16:01:18.195Z,101309.81
2024-02-13T16:03:47.585Z,101318.28
2024-02-13T16:06:14.216Z,101315.00
2024-02-13T16:08:43.896Z,101314.53
2024-02-13T16:11:10.442Z,101317.34
2024-02-13T16:13:37.366Z,101320.94
2024-02-13T16:16:04.169Z,101318.91
2024-02-13T16:18:31.393Z,101312.03
2024-02-13T16:20:59.640Z,101310.00
2024-02-13T16:23:27.282Z,101306.38
2024-02-13T16:25:56.421Z,101313.63
2024-02-13T16:28:22.952Z,101315.63
2024-02-13T16:30:49.697Z,101314.38
2024-02-13T16:33:19.232Z,101320.03
2024-02-13T16:35:45.951Z,101317.19
2024-02-13T16:38:12.549Z,101311.56
2024-02-13T16:40:38.991Z,101318.00
2024-02-13T16:43:05.701Z,101313.16
2024-02-13T16:45:32.616Z,101311.91
2024-02-13T16:47:59.850Z,101307.97
2024-02-13T16:50:28.947Z,101320.03
2024-02-13T16:52:55.767Z,101318.78
2024-02-13T16:55:25.601Z,101313.91
2024-02-13T16:57:53.229Z,101309.06
2024-02-13T17:00:22.796Z,101317.53
2024-02-13T17:02:50.431Z,101312.81
2024-02-13T17:05:17.241Z,101315.63
2024-02-13T17:07:45.060Z,101316.44
2024-02-13T17:10:19.072Z,101315.97
2024-02-13T17:12:45.650Z,101313.16
2024-02-13T17:15:13.820Z,101313.91
2024-02-13T17:17:41.755Z,101311.44
2024-02-13T17:20:11.821Z,101304.06
2024-02-13T17:22:39.312Z,101309.72
2024-02-13T17:25:08.413Z,101307.69
2024-02-13T17:27:34.918Z,101310.50
2024-02-13T17:30:01.585Z,101303.63
2024-02-13T17:32:28.271Z,101304.41
2024-02-13T17:34:54.905Z,101308.00
2024-02-13T17:37:21.542Z,101313.63
2024-02-13T17:39:48.011Z,101315.22
2024-02-13T17:42:14.647Z,101312.41
2024-02-13T17:44:41.311Z,101316.00
2024-02-13T17:47:07.961Z,101312.41
2024-02-13T17:49:35.786Z,101319.59
2024-02-13T17:52:03.673Z,101311.16
2024-02-13T17:54:30.413Z,101308.34
2024-02-13T17:56:57.028Z,101303.47
2024-02-13T17:59:26.193Z,101305.81
2024-02-13T18:01:53.629Z,101300.63
2024-02-13T18:04:21.484Z,101295.00
2024-02-13T18:06:49.052Z,101291.41
2024-02-13T18:09:15.787Z,101305.50
2024-02-13T18:11:42.566Z,101306.28
2024-02-13T18:14:11.503Z,101300.63
2024-02-13T18:16:38.245Z,101302.69
2024-02-13T18:19:06.867Z,101318.34
2024-02-13T18:21:34.040Z,101311.16
2024-02-13T18:24:02.547Z,101305.50
2024-02-13T18:26:29.884Z,101307.06
2024-02-13T18:28:59.501Z,101299.88
2024-02-13T18:31:26.191Z,101298.31
2024-02-13T18:33:52.970Z,101299.06
2024-02-13T18:36:20.356Z,101298.78
2024-02-13T18:38:48.840Z,101297.97
2024-02-13T18:41:15.682Z,101304.88
2024-02-13T18:43:42.185Z,101309.25
2024-02-13T18:46:10.885Z,101312.88
2024-02-13T18:48:42.487Z,101301.59
2024-02-13T18:51:09.889Z,101299.25
2024-02-13T18:53:36.552Z,101294.53
2024-02-13T18:56:04.109Z,101300.94
2024-02-13T18:58:36.478Z,101295.75
2024-02-13T19:01:04.446Z,101294.19
2024-02-13T19:03:31.497Z,101296.69
2024-02-13T19:06:04.149Z,101292.63
2024-02-13T19:08:36.196Z,101293.88
2024-02-13T19:11:03.512Z,101288.25
2024-02-13T19:13:30.187Z,101285.88
2024-02-13T19:15:56.725Z,101287.13
2024-02-13T19:18:24.343Z,101289.16
2024-02-13T19:20:55.299Z,101289.16
2024-02-13T19:23:25.677Z,101292.00
2024-02-13T19:25:52.515Z,101289.16
2024-02-13T19:28:19.423Z,101288.38
2024-02-13T19:30:51.551Z,101289.16
2024-02-13T19:33:18.290Z,101294.00
2024-02-13T19:35:46.198Z,101286.81
2024-02-13T19:38:16.660Z,101274.75
2024-02-13T19:40:43.307Z,101269.91
2024-02-13T19:43:09.992Z,101269.09
2024-02-13T19:45:37.583Z,101272.38
2024-02-13T19:48:04.501Z,101261.91
2024-02-13T19:50:32.706Z,101261.91
2024-02-13T19:53:00.556Z,101267.53
2024-02-13T19:55:27.047Z,101260.34
2024-02-13T19:57:54.608Z,101252.19
2024-02-13T20:00:22.587Z,101257.84
2024-02-13T20:02:49.125Z,101244.19
2024-02-13T20:05:15.639Z,101247.03
2024-02-13T20:07:42.148Z,101244.19
2024-02-13T20:10:09.189Z,101251.88
2024-02-13T20:12:35.993Z,101252.66
2024-02-13T20:15:03.989Z,101246.25
2024-02-13T20:17:31.501Z,101251.88
2024-02-13T20:19:58.158Z,101251.88
2024-02-13T20:22:24.652Z,101256.72
2024-02-13T20:24:51.159Z,101254.72
2024-02-13T20:27:17.647Z,101255.47
2024-02-13T20:29:45.396Z,101273.19
2024-02-13T20:32:14.419Z,101258.28
2024-02-13T20:34:41.415Z,101252.66
2024-02-13T20:37:08.730Z,101255.94
2024-02-13T20:39:35.229Z,101249.06
2024-02-13T20:42:04.476Z,101243.91
2024-02-13T20:44:32.915Z,101246.72
2024-02-13T20:46:59.772Z,101243.09
2024-02-13T20:49:27.272Z,101248.75
2024-02-13T20:51:54.025Z,101244.34
2024-02-13T20:54:21.027Z,101247.19
2024-02-13T20:56:48.295Z,101244.34
2024-02-13T20:59:15.137Z,101243.09
2024-02-13T21:01:41.680Z,101249.53
2024-02-13T21:04:08.326Z,101243.44
2024-02-13T21:06:36.278Z,101243.44
2024-02-13T21:09:03.609Z,101243.09
2024-02-13T21:11:32.037Z,101242.78
2024-02-13T21:14:00.038Z,101240.41
2024-02-13T21:16:30.561Z,101241.66
2024-02-13T21:18:58.072Z,101242.94
2024-02-13T21:21:43.753Z,101240.88
2024-02-13T21:24:10.389Z,101240.09
2024-02-13T21:26:41.046Z,101235.72
2024-02-13T21:29:08.440Z,101230.88
2024-02-13T21:31:35.344Z,101225.22
2024-02-13T21:34:06.857Z,101224.47
2024-02-13T21:36:35.331Z,101220.84
2024-02-13T21:39:02.101Z,101215.66
2024-02-13T21:41:28.786Z,101212.84
2024-02-13T21:43:55.644Z,101216.47
2024-02-13T21:46:22.201Z,101213.31
2024-02-13T21:48:49.160Z,101207.69
2024-02-13T21:51:16.076Z,101204.06
2024-02-13T21:53:42.749Z,101208.94
2024-02-13T21:56:09.588Z,101204.06
2024-02-13T21:58:36.169Z,101208.47
2024-02-13T22:01:02.718Z,101207.69
2024-02-13T22:03:29.234Z,101194.84
2024-02-13T22:05:55.961Z,101199.22
2024-02-13T22:08:24.327Z,101198.91
2024-02-13T22:10:50.905Z,101184.81
2024-02-13T22:13:18.312Z,101181.22
2024-02-13T22:15:45.954Z,101186.06
2024-02-13T22:18:12.569Z,101189.34
2024-02-13T22:20:39.174Z,101181.22
2024-02-13T22:23:09.742Z,101178.88
2024-02-13T22:25:37.482Z,101185.25
2024-02-13T22:28:04.558Z,101184.50
2024-02-13T22:30:31.355Z,101178.88
2024-02-13T22:32:58.820Z,101172.78
2024-02-13T22:35:25.460Z,101183.72
2024-02-13T22:37:52.030Z,101178.41
2024-02-13T22:40:19.036Z,101178.88
2024-02-13T22:42:45.552Z,101175.59
2024-02-13T22:45:12.094Z,101172.44
2024-02-13T22:47:39.118Z,101178.06
2024-02-13T22:50:07.006Z,101180.44
2024-02-13T22:52:36.438Z,101179.63
2024-02-13T22:55:06.820Z,101176.03
2024-02-13T22:57:36.097Z,101168.84
2024-02-13T23:00:06.233Z,101178.53
2024-02-13T23:02:32.792Z,101178.06
2024-02-13T23:05:00.137Z,101178.88
2024-02-13T23:07:26.729Z,101171.66
2024-02-13T23:09:53.320Z,101172.91
2024-02-13T23:12:19.844Z,101174.16
2024-02-13T23:14:46.899Z,101164.91
2024-02-13T23:17:13.420Z,101158.50
2024-02-13T23:19:40.072Z,101156.44
2024-02-13T23:22:06.814Z,101151.63
2024-02-13T23:24:33.412Z,101152.41
2024-02-13T23:27:00.195Z,101148.00
2024-02-13T23:29:29.627Z,101150.81
2024-02-13T23:31:56.405Z,101142.38
2024-02-13T23:34:23.017Z,101138.78
2024-02-13T23:36:54.616Z,101133.16
2024-02-13T23:39:21.179Z,101138.00
2024-02-13T23:41:47.749Z,101128.75
2024-02-13T23:44:14.218Z,101129.53
2024-02-13T23:46:40.811Z,101134.38
2024-02-13T23:49:07.492Z,101134.72
2024-02-13T23:51:34.092Z,101134.72
2024-02-13T23:54:00.674Z,101133.16
2024-02-13T23:56:27.328Z,101133.16
2024-02-13T23:58:53.843Z,101121.88
